Time;durP1;ratioP1;P1;durP2;ratioP2;P2;SDS_P1;SDS_P2;PMS_P1;PMS_P2;Temp;Humidity;BMP_temperature;BMP_pressure;BME280_temperature;BME280_humidity;BME280_pressure;Samples;Min_cycle;Max_cycle;Signal;HPM_P1;HPM_P2
2021/06/07 00:01:40;;;;;;;21.53;19.53;;;15.30;99.90;;;;;;6189624;23;20468;-74
2021/06/07 00:04:08;;;;;;;20.40;18.27;;;15.30;99.90;;;;;;6226788;23;20720;-74
2021/06/07 00:06:38;;;;;;;20.47;18.50;;;15.30;99.90;;;;;;6189054;23;20409;-74
2021/06/07 00:09:07;;;;;;;20.23;18.27;;;15.30;99.90;;;;;;6189368;23;20472;-74
2021/06/07 00:11:37;;;;;;;20.17;18.23;;;15.30;99.90;;;;;;6189376;23;20428;-74
2021/06/07 00:14:06;;;;;;;23.23;18.43;;;15.30;99.90;;;;;;6225816;23;20385;-74
2021/06/07 00:16:34;;;;;;;20.20;18.27;;;15.20;99.90;;;;;;6189331;23;21007;-74
2021/06/07 00:19:05;;;;;;;20.63;18.93;;;15.20;99.90;;;;;;6189364;23;20435;-74
2021/06/07 00:21:33;;;;;;;22.47;18.57;;;15.20;99.90;;;;;;6225975;23;20408;-74
2021/06/07 00:24:02;;;;;;;23.07;20.67;;;15.20;99.90;;;;;;6225877;23;20757;-74
2021/06/07 00:26:30;;;;;;;20.67;18.87;;;15.20;99.90;;;;;;6188959;23;20409;-74
2021/06/07 00:28:58;;;;;;;19.67;17.83;;;15.20;99.90;;;;;;6189154;23;20477;-74
2021/06/07 00:31:26;;;;;;;22.33;20.10;;;15.20;99.90;;;;;;6189197;23;20425;-74
2021/06/07 00:33:56;;;;;;;20.07;18.27;;;15.20;99.90;;;;;;6188929;23;20514;-74
2021/06/07 00:36:23;;;;;;;20.87;18.77;;;15.20;99.90;;;;;;6225283;23;20389;-73
2021/06/07 00:38:52;;;;;;;22.03;19.57;;;15.20;99.90;;;;;;6215529;23;20717;-74
2021/06/07 00:41:23;;;;;;;20.23;18.23;;;15.20;99.90;;;;;;6189078;23;20493;-74
2021/06/07 00:43:53;;;;;;;19.37;17.47;;;15.10;99.90;;;;;;6225799;23;20395;-74
2021/06/07 00:46:20;;;;;;;21.75;19.65;;;15.20;99.90;;;;;;6187808;23;20394;-74
2021/06/07 00:48:48;;;;;;;19.70;17.80;;;15.20;99.90;;;;;;6188946;23;20564;-74
2021/06/07 00:51:16;;;;;;;21.00;19.00;;;15.20;99.90;;;;;;6188586;23;20457;-74
2021/06/07 00:53:44;;;;;;;19.80;17.80;;;15.20;99.90;;;;;;6188993;23;20389;-74
2021/06/07 00:56:12;;;;;;;22.23;20.07;;;15.20;99.90;;;;;;6228397;23;20786;-74
2021/06/07 00:58:44;;;;;;;20.90;19.00;;;15.10;99.90;;;;;;6229286;23;20871;-73
2021/06/07 01:01:15;;;;;;;21.03;19.13;;;15.10;99.90;;;;;;6229741;23;20357;-74
2021/06/07 01:03:44;;;;;;;21.53;19.43;;;15.10;99.90;;;;;;6229134;23;20383;-74
2021/06/07 01:06:13;;;;;;;22.90;20.53;;;15.10;99.90;;;;;;6228929;23;20730;-74
2021/06/07 01:08:41;;;;;;;21.77;19.67;;;15.00;99.90;;;;;;6192404;23;20714;-73
2021/06/07 01:11:10;;;;;;;23.63;21.17;;;15.00;99.90;;;;;;6218942;23;20932;-74
2021/06/07 01:13:38;;;;;;;22.87;20.50;;;15.10;99.90;;;;;;6229036;23;20461;-74
2021/06/07 01:16:07;;;;;;;22.70;20.30;;;15.00;99.90;;;;;;6192338;23;20798;-74
2021/06/07 01:18:36;;;;;;;21.27;19.20;;;15.10;99.90;;;;;;6192866;23;20411;-74
2021/06/07 01:21:07;;;;;;;22.23;20.10;;;15.00;99.90;;;;;;6219231;23;20382;-74
2021/06/07 01:23:37;;;;;;;20.90;18.37;;;15.00;99.90;;;;;;6229022;23;20406;-74
2021/06/07 01:26:06;;;;;;;23.20;19.23;;;15.00;99.90;;;;;;6192224;23;20413;-74
2021/06/07 01:28:34;;;;;;;21.90;19.70;;;15.00;99.90;;;;;;6192027;23;20460;-74
2021/06/07 01:31:04;;;;;;;22.43;20.23;;;15.00;99.90;;;;;;6228883;23;20402;-74
2021/06/07 01:33:33;;;;;;;21.53;19.43;;;15.00;99.90;;;;;;6192144;23;20419;-74
2021/06/07 01:36:03;;;;;;;22.70;20.50;;;15.00;99.90;;;;;;6219323;23;20493;-74
2021/06/07 01:38:30;;;;;;;21.23;19.27;;;15.00;99.90;;;;;;6229572;23;20866;-74
2021/06/07 01:41:02;;;;;;;22.13;19.97;;;15.00;99.90;;;;;;6192236;23;20392;-74
2021/06/07 01:43:31;;;;;;;29.20;20.17;;;15.00;99.90;;;;;;6218743;23;20441;-74
2021/06/07 01:45:59;;;;;;;22.80;20.60;;;15.00;99.90;;;;;;6229125;23;20421;-74
2021/06/07 01:48:28;;;;;;;23.93;21.33;;;15.00;99.90;;;;;;6192014;23;20457;-74
2021/06/07 01:51:00;;;;;;;22.83;20.60;;;15.00;99.90;;;;;;6219169;23;20386;-74
2021/06/07 01:53:36;;;;;;;25.13;20.80;;;15.00;99.90;;;;;;6229359;23;20694;-74
2021/06/07 01:56:08;;;;;;;21.43;19.30;;;15.00;99.90;;;;;;6229647;23;20496;-74
2021/06/07 01:58:47;;;;;;;21.60;19.60;;;15.00;99.90;;;;;;6229759;23;20349;-74
2021/06/07 02:01:17;;;;;;;22.33;20.03;;;15.00;99.90;;;;;;6192333;23;20438;-74
2021/06/07 02:03:46;;;;;;;22.40;20.20;;;15.00;99.90;;;;;;6192295;23;20392;-74
2021/06/07 02:06:26;;;;;;;22.60;20.30;;;15.00;99.90;;;;;;6228892;23;20917;-74
2021/06/07 02:08:56;;;;;;;22.73;20.27;;;15.00;99.90;;;;;;6218388;23;20412;-74
2021/06/07 02:11:29;;;;;;;28.93;20.47;;;15.00;99.90;;;;;;6227824;23;20406;-74
2021/06/07 02:14:01;;;;;;;21.07;19.10;;;15.00;99.90;;;;;;6216428;23;20440;-74
2021/06/07 02:16:30;;;;;;;22.77;20.60;;;15.00;99.90;;;;;;6216841;23;20534;-74
2021/06/07 02:19:00;;;;;;;21.87;19.77;;;15.00;99.90;;;;;;6190415;23;20386;-74
2021/06/07 02:21:30;;;;;;;21.20;19.20;;;15.00;99.90;;;;;;6216753;23;20385;-74
2021/06/07 02:23:57;;;;;;;22.37;20.17;;;15.00;99.90;;;;;;6216942;23;20732;-74
2021/06/07 02:26:27;;;;;;;22.20;19.90;;;15.00;99.90;;;;;;6227111;23;20398;-74
2021/06/07 02:28:56;;;;;;;19.97;18.17;;;15.00;99.90;;;;;;6227211;23;20687;-74
2021/06/07 02:31:25;;;;;;;21.07;19.07;;;15.00;99.90;;;;;;6227433;23;20431;-74
2021/06/07 02:33:55;;;;;;;21.63;19.63;;;15.00;99.90;;;;;;6226869;23;20415;-74
2021/06/07 02:36:28;;;;;;;22.00;19.73;;;15.00;99.90;;;;;;6226771;23;20485;-74
2021/06/07 02:38:56;;;;;;;23.03;20.90;;;15.00;99.90;;;;;;6217146;23;20475;-74
2021/06/07 02:41:24;;;;;;;21.23;19.13;;;15.00;99.90;;;;;;6190261;23;20413;-74
2021/06/07 02:43:54;;;;;;;20.07;18.07;;;15.00;99.90;;;;;;6226878;23;20453;-74
2021/06/07 02:46:22;;;;;;;21.67;19.60;;;14.90;99.90;;;;;;6226389;23;20433;-74
2021/06/07 02:48:50;;;;;;;21.17;18.67;;;15.00;99.90;;;;;;6226747;23;20179;-74
2021/06/07 02:51:17;;;;;;;22.03;19.83;;;14.90;99.90;;;;;;6226716;23;20402;-74
2021/06/07 02:53:48;;;;;;;22.00;20.00;;;15.00;99.90;;;;;;6190134;23;20389;-74
2021/06/07 02:56:16;;;;;;;20.60;18.47;;;14.90;99.90;;;;;;6226961;23;20406;-74
2021/06/07 02:58:44;;;;;;;23.20;19.67;;;14.90;99.90;;;;;;6217245;23;20398;-74
2021/06/07 03:01:13;;;;;;;20.90;18.90;;;14.90;99.90;;;;;;6216687;23;20435;-74
2021/06/07 03:03:41;;;;;;;24.57;22.27;;;14.90;99.90;;;;;;6216892;23;20382;-74
2021/06/07 03:06:09;;;;;;;23.50;21.07;;;14.90;99.90;;;;;;6189851;23;20417;-74
2021/06/07 03:08:37;;;;;;;23.03;20.80;;;14.90;99.90;;;;;;6189776;23;20386;-74
2021/06/07 03:11:07;;;;;;;25.03;22.50;;;14.90;99.90;;;;;;6216377;23;20385;-74
2021/06/07 03:13:35;;;;;;;21.43;19.13;;;14.90;99.90;;;;;;6226948;23;20453;-74
2021/06/07 03:16:03;;;;;;;25.20;22.17;;;14.90;99.90;;;;;;6189933;23;20409;-74
2021/06/07 03:18:32;;;;;;;24.53;22.00;;;14.90;99.90;;;;;;6216268;23;20416;-74
2021/06/07 03:21:00;;;;;;;24.50;21.80;;;14.90;99.90;;;;;;6226513;23;20395;-74
2021/06/07 03:23:31;;;;;;;23.17;20.87;;;14.90;99.90;;;;;;6189774;23;20489;-74
2021/06/07 03:25:59;;;;;;;26.53;23.80;;;14.90;99.90;;;;;;6226303;23;20522;-74
2021/06/07 03:28:28;;;;;;;26.70;22.67;;;14.90;99.90;;;;;;6216242;23;20937;-74
2021/06/07 03:30:57;;;;;;;25.43;22.90;;;14.90;99.90;;;;;;6226523;23;20414;-74
2021/06/07 03:33:25;;;;;;;27.67;24.70;;;14.90;99.90;;;;;;6216737;23;20725;-74
2021/06/07 03:35:56;;;;;;;29.97;24.73;;;14.90;99.90;;;;;;6226397;23;21022;-74
2021/06/07 03:38:24;;;;;;;25.70;22.97;;;14.90;99.90;;;;;;6226077;23;20369;-74
2021/06/07 03:40:54;;;;;;;27.47;22.90;;;14.90;99.90;;;;;;6216480;23;20481;-74
2021/06/07 03:43:23;;;;;;;24.87;22.27;;;14.90;99.90;;;;;;6189552;23;20446;-74
2021/06/07 03:45:51;;;;;;;26.13;22.93;;;14.80;99.90;;;;;;6226048;23;20514;-74
2021/06/07 03:48:19;;;;;;;27.40;23.50;;;14.80;99.90;;;;;;6225997;23;20726;-74
2021/06/07 03:50:47;;;;;;;23.93;21.60;;;14.80;99.90;;;;;;6226325;23;20486;-74
2021/06/07 03:53:16;;;;;;;23.87;21.43;;;14.80;99.90;;;;;;6226308;23;20875;-74
2021/06/07 03:55:44;;;;;;;24.87;22.27;;;14.80;99.90;;;;;;6226096;23;20877;-74
2021/06/07 03:58:12;;;;;;;24.30;21.90;;;14.80;99.90;;;;;;6189039;23;20718;-74
2021/06/07 04:00:41;;;;;;;26.47;23.07;;;14.80;99.90;;;;;;6226084;23;20887;-74
2021/06/07 04:03:11;;;;;;;24.00;21.40;;;14.80;99.90;;;;;;6227119;23;20474;-74
2021/06/07 04:05:40;;;;;;;26.08;23.38;;;14.80;99.90;;;;;;6188380;23;20801;-74
2021/06/07 04:08:09;;;;;;;24.60;22.10;;;14.90;99.90;;;;;;6226032;23;20160;-74
2021/06/07 04:10:39;;;;;;;25.33;22.20;;;14.90;99.90;;;;;;6189761;23;20972;-74
2021/06/07 04:13:07;;;;;;;23.57;21.17;;;14.90;99.90;;;;;;6189457;23;20410;-74
2021/06/07 04:15:35;;;;;;;25.60;23.00;;;14.90;99.90;;;;;;6225762;23;20963;-74
2021/06/07 04:18:03;;;;;;;22.23;19.93;;;14.90;99.90;;;;;;6226365;23;20692;-74
2021/06/07 04:20:32;;;;;;;23.67;21.17;;;14.90;99.90;;;;;;6189254;23;20921;-74
2021/06/07 04:23:00;;;;;;;26.47;23.17;;;14.80;99.90;;;;;;6225743;23;20402;-74
2021/06/07 04:25:29;;;;;;;26.30;22.53;;;14.80;99.90;;;;;;6225788;23;20474;-74
2021/06/07 04:27:59;;;;;;;24.40;22.00;;;14.80;99.90;;;;;;6189217;23;20490;-74
2021/06/07 04:30:28;;;;;;;21.93;19.10;;;14.80;99.90;;;;;;6225701;23;20749;-73
2021/06/07 04:32:57;;;;;;;25.00;22.30;;;14.80;99.90;;;;;;6189270;23;20458;-74
2021/06/07 04:35:25;;;;;;;23.67;21.00;;;14.90;99.90;;;;;;6225646;23;20854;-74
2021/06/07 04:37:54;;;;;;;23.57;21.17;;;14.80;99.90;;;;;;6226135;23;20391;-74
2021/06/07 04:40:23;;;;;;;24.03;21.63;;;14.90;99.90;;;;;;6226087;23;20378;-74
2021/06/07 04:42:52;;;;;;;25.33;22.57;;;14.90;99.90;;;;;;6225518;23;20452;-74
2021/06/07 04:45:22;;;;;;;29.63;22.33;;;14.90;99.90;;;;;;6216004;23;20484;-74
2021/06/07 04:47:51;;;;;;;26.20;21.47;;;14.90;99.90;;;;;;6226331;23;20389;-77
2021/06/07 04:50:21;;;;;;;21.40;19.13;;;14.90;99.90;;;;;;6225745;23;20369;-73
2021/06/07 04:52:59;;;;;;;24.73;22.07;;;14.90;99.90;;;;;;6227542;23;20758;-73
2021/06/07 04:55:31;;;;;;;23.37;20.93;;;14.90;99.90;;;;;;6190183;23;20436;-73
2021/06/07 04:58:00;;;;;;;24.03;21.50;;;14.90;99.90;;;;;;6216142;23;20766;-74
2021/06/07 05:00:30;;;;;;;22.20;19.70;;;14.90;99.90;;;;;;6189155;23;20868;-74
2021/06/07 05:02:58;;;;;;;23.23;21.02;;;14.90;99.90;;;;;;6188683;23;20395;-74
2021/06/07 05:05:26;;;;;;;23.03;20.57;;;14.90;99.90;;;;;;6188161;23;20685;-74
2021/06/07 05:07:54;;;;;;;25.07;21.30;;;15.00;99.90;;;;;;6185367;23;20446;-74
2021/06/07 05:10:22;;;;;;;27.40;22.33;;;14.90;99.90;;;;;;6223787;23;20504;-74
2021/06/07 05:12:50;;;;;;;23.55;21.25;;;15.00;99.90;;;;;;6225143;23;20404;-74
2021/06/07 05:15:18;;;;;;;24.97;22.27;;;15.00;99.90;;;;;;6225553;23;20184;-73
2021/06/07 05:17:47;;;;;;;25.00;22.30;;;15.00;99.90;;;;;;6225556;23;20496;-73
2021/06/07 05:20:18;;;;;;;24.23;21.63;;;15.00;99.90;;;;;;6226536;23;20695;-73
2021/06/07 05:22:45;;;;;;;24.20;21.67;;;15.00;99.90;;;;;;6216229;23;20374;-73
2021/06/07 05:25:14;;;;;;;24.83;21.30;;;15.00;99.90;;;;;;6225836;23;20417;-73
2021/06/07 05:27:42;;;;;;;25.33;21.67;;;15.00;99.90;;;;;;6188962;23;20454;-73
2021/06/07 05:30:11;;;;;;;24.70;22.20;;;15.00;99.90;;;;;;6189959;23;20779;-73
2021/06/07 05:32:39;;;;;;;26.30;22.87;;;15.00;99.90;;;;;;6225966;23;20410;-73
2021/06/07 05:35:10;;;;;;;23.67;21.27;;;15.00;99.90;;;;;;6188659;23;20757;-73
2021/06/07 05:37:38;;;;;;;24.67;21.17;;;15.00;99.90;;;;;;6225519;23;20415;-73
2021/06/07 05:40:08;;;;;;;27.70;23.00;;;15.00;99.90;;;;;;6225546;23;20478;-73
2021/06/07 05:42:37;;;;;;;28.07;22.23;;;15.10;99.90;;;;;;6189676;23;20902;-73
2021/06/07 05:45:07;;;;;;;23.87;21.47;;;15.10;99.90;;;;;;6227421;23;20422;-73
2021/06/07 05:47:35;;;;;;;26.20;21.87;;;15.10;99.90;;;;;;6227716;23;20868;-73
2021/06/07 05:50:04;;;;;;;28.17;23.47;;;15.10;99.90;;;;;;6228184;23;20449;-73
2021/06/07 05:52:33;;;;;;;26.63;23.83;;;15.20;99.90;;;;;;6227474;23;20507;-73
2021/06/07 05:55:01;;;;;;;30.80;23.50;;;15.20;99.90;;;;;;6190559;23;20431;-73
2021/06/07 05:57:28;;;;;;;26.43;21.77;;;15.20;99.90;;;;;;6217421;23;20493;-73
2021/06/07 05:59:56;;;;;;;28.53;22.53;;;15.30;99.90;;;;;;6227071;23;20423;-73
2021/06/07 06:02:23;;;;;;;27.73;20.73;;;15.30;99.90;;;;;;6227240;23;20724;-73
2021/06/07 06:04:51;;;;;;;25.87;22.57;;;15.30;99.90;;;;;;6190875;23;20382;-73
2021/06/07 06:07:19;;;;;;;27.43;22.90;;;15.30;99.90;;;;;;6190379;23;20418;-73
2021/06/07 06:09:48;;;;;;;24.63;22.00;;;15.30;99.90;;;;;;6227219;23;20374;-73
2021/06/07 06:12:16;;;;;;;25.70;22.80;;;15.40;99.90;;;;;;6216398;23;20479;-73
2021/06/07 06:14:43;;;;;;;26.80;22.37;;;15.40;99.90;;;;;;6227300;23;20168;-73
2021/06/07 06:17:11;;;;;;;24.17;21.13;;;15.40;99.90;;;;;;6227052;23;20782;-73
2021/06/07 06:19:38;;;;;;;26.60;22.40;;;15.50;99.90;;;;;;6190412;23;20399;-73
2021/06/07 06:22:06;;;;;;;26.70;22.80;;;15.50;99.90;;;;;;6226621;23;20911;-73
2021/06/07 06:24:35;;;;;;;25.60;22.40;;;15.50;99.90;;;;;;6226987;23;20403;-74
2021/06/07 06:27:05;;;;;;;25.47;22.70;;;15.50;99.90;;;;;;6226962;23;20378;-73
2021/06/07 06:29:32;;;;;;;27.93;22.53;;;15.50;99.90;;;;;;6227014;23;20398;-73
2021/06/07 06:32:00;;;;;;;26.77;21.30;;;15.50;99.90;;;;;;6224951;23;20396;-73
2021/06/07 06:34:28;;;;;;;24.17;20.30;;;15.60;99.90;;;;;;6226958;23;20473;-73
2021/06/07 06:36:56;;;;;;;24.20;21.77;;;15.60;99.90;;;;;;6226647;23;20513;-73
2021/06/07 06:39:23;;;;;;;23.50;21.00;;;15.60;99.90;;;;;;6226921;23;20397;-73
2021/06/07 06:41:51;;;;;;;24.33;21.77;;;15.60;99.90;;;;;;6226801;23;20409;-73
2021/06/07 06:44:20;;;;;;;22.90;20.50;;;15.60;99.90;;;;;;6226733;23;20478;-73
2021/06/07 06:46:48;;;;;;;22.03;19.70;;;15.70;99.90;;;;;;6190128;23;20839;-73
2021/06/07 06:49:15;;;;;;;25.47;22.77;;;15.70;99.90;;;;;;6226746;23;20749;-73
2021/06/07 06:51:43;;;;;;;22.03;19.77;;;15.80;99.90;;;;;;6190202;23;20443;-74
2021/06/07 06:54:11;;;;;;;23.07;19.80;;;15.80;99.90;;;;;;6190122;23;20879;-73
2021/06/07 06:56:38;;;;;;;22.20;19.27;;;15.80;99.90;;;;;;6227276;23;20406;-74
2021/06/07 06:59:06;;;;;;;24.93;21.50;;;15.80;99.90;;;;;;6227006;23;20401;-73
2021/06/07 07:01:35;;;;;;;22.90;20.50;;;15.90;99.90;;;;;;6189946;23;20411;-74
2021/06/07 07:04:03;;;;;;;21.90;19.70;;;15.90;99.90;;;;;;6226575;23;20431;-74
2021/06/07 07:06:32;;;;;;;21.87;19.63;;;16.00;99.90;;;;;;6226455;23;20394;-74
2021/06/07 07:09:00;;;;;;;22.70;20.47;;;16.00;99.90;;;;;;6189923;23;20415;-74
2021/06/07 07:11:27;;;;;;;22.70;19.77;;;16.10;99.90;;;;;;6227294;23;20770;-74
2021/06/07 07:13:55;;;;;;;21.90;19.50;;;16.10;99.90;;;;;;6189929;23;20784;-74
2021/06/07 07:16:23;;;;;;;21.80;19.27;;;16.10;99.90;;;;;;6189772;23;20431;-74
2021/06/07 07:18:52;;;;;;;23.43;18.70;;;16.20;99.90;;;;;;6226617;23;20403;-73
2021/06/07 07:21:20;;;;;;;22.60;19.05;;;16.20;99.90;;;;;;6189950;23;20428;-74
2021/06/07 07:23:48;;;;;;;22.87;18.80;;;16.30;99.90;;;;;;6227118;23;20188;-74
2021/06/07 07:26:15;;;;;;;20.37;18.37;;;16.40;99.90;;;;;;6190023;23;20510;-74
2021/06/07 07:28:43;;;;;;;20.10;18.00;;;16.40;99.90;;;;;;6189851;23;20480;-74
2021/06/07 07:31:11;;;;;;;19.88;17.77;;;16.40;99.90;;;;;;6188962;23;20888;-74
2021/06/07 07:33:44;;;;;;;18.50;16.73;;;16.60;99.90;;;;;;6226872;23;20251;-74
2021/06/07 07:36:15;;;;;;;18.27;16.57;;;16.60;99.90;;;;;;6226501;23;20448;-73
2021/06/07 07:38:44;;;;;;;20.17;15.83;;;16.70;99.90;;;;;;6226393;23;20788;-73
2021/06/07 07:41:12;;;;;;;17.93;16.20;;;16.70;99.90;;;;;;6226425;23;20811;-74
2021/06/07 07:43:40;;;;;;;18.83;16.87;;;16.80;99.90;;;;;;6226143;23;20426;-74
2021/06/07 07:46:08;;;;;;;18.33;16.63;;;16.80;99.90;;;;;;6226161;23;20418;-74
2021/06/07 07:48:36;;;;;;;17.07;15.37;;;16.90;99.90;;;;;;6189524;23;20418;-73
2021/06/07 07:51:06;;;;;;;18.37;16.50;;;16.90;99.90;;;;;;6226202;23;20430;-74
2021/06/07 07:53:35;;;;;;;18.93;15.97;;;17.00;99.90;;;;;;6216528;23;20457;-74
2021/06/07 07:56:03;;;;;;;20.57;15.50;;;17.00;99.90;;;;;;6189669;23;20426;-73
2021/06/07 07:58:31;;;;;;;17.47;15.70;;;17.10;99.90;;;;;;6226028;23;20467;-74
2021/06/07 08:00:58;;;;;;;17.60;15.97;;;17.20;99.90;;;;;;6189385;23;20855;-74
2021/06/07 08:03:26;;;;;;;17.10;15.40;;;17.20;99.90;;;;;;6226906;23;20431;-74
2021/06/07 08:05:54;;;;;;;17.57;15.80;;;17.20;99.90;;;;;;6188979;23;20459;-74
2021/06/07 08:08:21;;;;;;;16.80;15.10;;;17.20;99.90;;;;;;6189603;23;20421;-74
2021/06/07 08:10:55;;;;;;;16.43;14.97;;;17.20;99.90;;;;;;6189391;23;20505;-73
2021/06/07 08:13:23;;;;;;;16.77;15.27;;;17.30;99.90;;;;;;6215989;23;20474;-74
2021/06/07 08:15:51;;;;;;;17.03;15.23;;;17.30;99.90;;;;;;6216224;23;20450;-73
2021/06/07 08:18:19;;;;;;;15.70;14.20;;;17.30;99.90;;;;;;6189530;23;20442;-73
2021/06/07 08:20:46;;;;;;;16.47;14.90;;;17.30;99.90;;;;;;6225989;23;20395;-74
2021/06/07 08:23:14;;;;;;;16.63;15.10;;;17.30;99.90;;;;;;6225996;23;20406;-73
2021/06/07 08:25:42;;;;;;;14.87;13.57;;;17.30;99.90;;;;;;6216102;23;20426;-74
2021/06/07 08:28:17;;;;;;;15.83;14.33;;;17.40;99.90;;;;;;6189400;23;20415;-74
2021/06/07 08:30:47;;;;;;;16.60;15.00;;;17.40;99.90;;;;;;6226149;23;20365;-74
2021/06/07 08:33:15;;;;;;;17.30;15.83;;;17.50;99.90;;;;;;6225731;23;20406;-74
2021/06/07 08:35:43;;;;;;;16.47;15.07;;;17.50;99.90;;;;;;6226522;23;20510;-74
2021/06/07 08:38:10;;;;;;;17.23;15.63;;;17.50;99.90;;;;;;6225132;23;20408;-74
2021/06/07 08:40:38;;;;;;;16.83;15.40;;;17.60;99.90;;;;;;6189287;23;20200;-74
2021/06/07 08:43:06;;;;;;;16.17;14.70;;;17.60;99.90;;;;;;6226087;23;20430;-73
2021/06/07 08:45:36;;;;;;;16.90;15.47;;;17.70;99.90;;;;;;6189213;23;20426;-73
2021/06/07 08:48:03;;;;;;;17.23;15.63;;;17.70;99.90;;;;;;6225845;23;20399;-73
2021/06/07 08:50:32;;;;;;;17.07;15.47;;;17.70;99.90;;;;;;6226085;23;20478;-73
2021/06/07 08:53:00;;;;;;;16.50;14.83;;;17.70;99.90;;;;;;6189316;23;20425;-73
2021/06/07 08:55:31;;;;;;;19.03;17.03;;;17.70;99.90;;;;;;6226145;23;20415;-73
2021/06/07 08:58:02;;;;;;;17.57;15.80;;;17.80;99.90;;;;;;6225690;23;20392;-73
2021/06/07 09:00:32;;;;;;;22.43;16.57;;;17.80;99.90;;;;;;6216002;23;20403;-74
2021/06/07 09:03:04;;;;;;;17.27;15.67;;;17.80;99.90;;;;;;6189018;23;20439;-74
2021/06/07 09:05:34;;;;;;;17.23;15.57;;;17.80;99.90;;;;;;6225978;23;20415;-74
2021/06/07 09:08:04;;;;;;;18.03;15.90;;;17.90;99.90;;;;;;6226059;23;20395;-74
2021/06/07 09:10:33;;;;;;;18.40;16.80;;;17.90;99.90;;;;;;6189816;23;20989;-74
2021/06/07 09:13:04;;;;;;;17.03;15.30;;;18.00;99.90;;;;;;6189015;23;20418;-74
2021/06/07 09:15:36;;;;;;;17.03;15.53;;;18.10;99.90;;;;;;6225734;23;20930;-74
2021/06/07 09:18:07;;;;;;;17.07;15.40;;;18.20;99.90;;;;;;6228169;23;20415;-74
2021/06/07 09:20:36;;;;;;;16.30;14.80;;;18.20;99.90;;;;;;6217780;23;20426;-74
2021/06/07 09:23:06;;;;;;;15.63;14.23;;;18.30;99.90;;;;;;6190836;23;20470;-74
2021/06/07 09:25:35;;;;;;;16.63;15.23;;;18.40;99.90;;;;;;6191171;23;20441;-73
2021/06/07 09:28:09;;;;;;;16.47;14.93;;;18.40;99.90;;;;;;6191009;23;20498;-74
2021/06/07 09:30:41;;;;;;;15.90;14.60;;;18.50;99.90;;;;;;6228270;23;20441;-74
2021/06/07 09:33:34;;;;;;;16.40;14.90;;;18.50;99.90;;;;;;6190253;23;20491;-74
2021/06/07 09:36:23;;;;;;;16.00;14.50;;;18.60;99.90;;;;;;6186452;23;20196;-73
2021/06/07 09:39:05;;;;;;;15.30;14.00;;;18.70;99.90;;;;;;6190740;23;20454;-74
2021/06/07 09:41:44;;;;;;;14.60;13.20;;;18.80;99.90;;;;;;6227838;23;20714;-74
2021/06/07 09:44:19;;;;;;;15.32;13.93;;;18.80;99.90;;;;;;6190529;23;20492;-74
2021/06/07 09:46:47;;;;;;;14.77;13.37;;;18.80;99.90;;;;;;6227572;23;20188;-74
2021/06/07 09:49:18;;;;;;;13.60;12.50;;;18.90;99.90;;;;;;6190974;23;20441;-74
2021/06/07 09:51:54;;;;;;;13.27;11.93;;;18.90;99.90;;;;;;6190776;23;20418;-74
2021/06/07 09:54:24;;;;;;;13.43;12.23;;;19.00;99.90;;;;;;6228250;23;20692;-74
2021/06/07 09:56:54;;;;;;;12.83;11.73;;;19.10;99.90;;;;;;6227342;23;20418;-74
2021/06/07 09:59:29;;;;;;;13.40;12.23;;;19.20;99.90;;;;;;6190598;23;20530;-74
2021/06/07 10:01:58;;;;;;;11.57;10.57;;;19.40;99.90;;;;;;6190641;23;20411;-74
2021/06/07 10:04:58;;;;;;;12.50;11.40;;;19.60;99.90;;;;;;6227696;23;20474;-74
2021/06/07 10:07:26;;;;;;;14.17;13.07;;;19.80;99.90;;;;;;6217408;23;20868;-74
2021/06/07 10:10:11;;;;;;;12.03;10.93;;;20.00;99.90;;;;;;6227163;23;20396;-74
2021/06/07 10:12:40;;;;;;;11.93;11.03;;;20.10;99.90;;;;;;6227567;23;20389;-74
2021/06/07 10:15:12;;;;;;;13.03;11.73;;;20.20;99.90;;;;;;6227391;23;20507;-74
2021/06/07 10:17:40;;;;;;;13.57;12.50;;;20.20;99.90;;;;;;6227449;23;20427;-74
2021/06/07 10:22:59;;;;;;;12.20;11.10;;;20.30;99.90;;;;;;6190387;23;20889;-76
2021/06/07 10:25:28;;;;;;;13.30;12.10;;;20.40;99.90;;;;;;6190732;23;21017;-75
2021/06/07 10:27:55;;;;;;;12.73;11.57;;;20.40;99.90;;;;;;6189919;23;20421;-75
2021/06/07 10:30:25;;;;;;;12.87;11.87;;;20.40;99.90;;;;;;6227352;23;20765;-74
2021/06/07 10:32:53;;;;;;;11.37;10.30;;;20.40;99.90;;;;;;6190279;23;20435;-75
2021/06/07 10:35:31;;;;;;;13.10;12.00;;;20.40;99.90;;;;;;6216700;23;20437;-76
2021/06/07 10:38:09;;;;;;;12.23;11.13;;;20.50;99.90;;;;;;6227265;23;20511;-76
2021/06/07 10:40:39;;;;;;;13.60;12.33;;;20.50;99.90;;;;;;6226963;23;20382;-75
2021/06/07 10:43:08;;;;;;;15.03;13.83;;;20.50;99.90;;;;;;6190257;23;20512;-76
2021/06/07 10:45:39;;;;;;;14.13;12.83;;;20.50;99.90;;;;;;6190029;23;20467;-76
2021/06/07 10:48:08;;;;;;;13.38;12.18;;;20.50;99.90;;;;;;6226030;23;20394;-76
2021/06/07 10:50:43;;;;;;;14.23;12.93;;;20.60;99.90;;;;;;6190224;23;20332;-76
2021/06/07 10:53:22;;;;;;;13.97;12.70;;;20.70;99.90;;;;;;6190219;23;20408;-75
2021/06/07 10:56:03;;;;;;;12.90;11.80;;;20.70;99.90;;;;;;6217328;23;20426;-75
2021/06/07 10:58:31;;;;;;;13.50;12.50;;;20.70;99.90;;;;;;6189992;23;20773;-75
2021/06/07 11:01:01;;;;;;;14.57;13.30;;;20.70;99.90;;;;;;6226863;23;20960;-76
2021/06/07 11:03:32;;;;;;;14.13;12.93;;;20.70;99.90;;;;;;6226811;23;20466;-76
2021/06/07 11:06:03;;;;;;;13.03;11.70;;;20.70;99.90;;;;;;6190158;23;20466;-76
2021/06/07 11:08:32;;;;;;;12.30;11.20;;;20.70;99.90;;;;;;6190298;23;20470;-76
2021/06/07 11:11:04;;;;;;;12.63;11.20;;;20.70;99.90;;;;;;6226904;23;20398;-76
2021/06/07 11:13:43;;;;;;;12.00;10.90;;;20.80;99.90;;;;;;6190004;23;20414;-76
2021/06/07 11:16:25;;;;;;;13.40;12.17;;;20.80;99.90;;;;;;6226733;23;20771;-76
2021/06/07 11:18:57;;;;;;;17.30;11.90;;;20.80;99.90;;;;;;6226962;23;20421;-75
2021/06/07 11:21:29;;;;;;;12.67;11.57;;;20.80;99.90;;;;;;6226650;23;20384;-76
2021/06/07 11:23:57;;;;;;;14.70;13.40;;;20.80;99.90;;;;;;6226567;23;20413;-76
2021/06/07 11:26:36;;;;;;;13.93;12.50;;;20.90;99.90;;;;;;6189828;23;20436;-76
2021/06/07 11:29:10;;;;;;;14.03;12.67;;;20.90;99.90;;;;;;6216738;23;20475;-76
2021/06/07 11:31:45;;;;;;;15.63;14.03;;;20.90;99.90;;;;;;6226568;23;20408;-76
2021/06/07 11:34:20;;;;;;;14.70;13.50;;;20.90;99.90;;;;;;6226335;23;20426;-76
2021/06/07 11:36:59;;;;;;;13.90;12.80;;;20.90;99.90;;;;;;6216836;23;20433;-76
2021/06/07 11:39:46;;;;;;;15.37;13.87;;;20.90;99.90;;;;;;6216201;23;20425;-76
2021/06/07 11:42:15;;;;;;;13.57;12.33;;;20.90;99.90;;;;;;6189753;23;20415;-76
2021/06/07 11:45:02;;;;;;;13.10;12.00;;;20.90;99.90;;;;;;6189948;23;20495;-76
2021/06/07 11:47:51;;;;;;;14.63;13.33;;;20.80;99.90;;;;;;6226413;23;20386;-76
2021/06/07 11:50:25;;;;;;;16.73;15.33;;;20.80;99.90;;;;;;6225821;23;20822;-76
2021/06/07 11:52:54;;;;;;;15.50;14.07;;;20.80;99.90;;;;;;6190042;23;20420;-75
2021/06/07 11:55:33;;;;;;;17.83;16.03;;;20.90;99.90;;;;;;6216870;23;20433;-76
2021/06/07 11:58:13;;;;;;;14.40;13.10;;;20.90;99.90;;;;;;6189986;23;20415;-76
2021/06/07 12:00:42;;;;;;;14.03;12.93;;;20.90;99.90;;;;;;6189651;23;20436;-76
2021/06/07 12:03:12;;;;;;;14.80;13.40;;;20.90;99.90;;;;;;6226154;23;20479;-76
2021/06/07 12:05:41;;;;;;;15.80;14.40;;;20.90;99.90;;;;;;6226148;23;20752;-76
2021/06/07 12:08:12;;;;;;;14.97;13.67;;;20.90;99.90;;;;;;6189639;23;20419;-76
2021/06/07 12:10:42;;;;;;;15.33;14.03;;;20.90;99.90;;;;;;6226481;23;20856;-76
2021/06/07 12:13:25;;;;;;;13.93;12.67;;;20.80;99.90;;;;;;6190793;23;20714;-76
2021/06/07 12:15:55;;;;;;;14.33;13.13;;;20.80;99.90;;;;;;6189409;23;20436;-76
2021/06/07 12:18:41;;;;;;;14.53;13.23;;;20.80;99.90;;;;;;6189477;23;20441;-76
2021/06/07 12:21:12;;;;;;;14.80;13.43;;;20.80;99.90;;;;;;6189427;23;20786;-75
2021/06/07 12:23:45;;;;;;;15.10;13.80;;;20.80;99.90;;;;;;6216295;23;20409;-75
2021/06/07 12:29:23;;;;;;;13.70;12.50;;;20.70;99.90;;;;;;6226103;23;20409;-76
2021/06/07 12:32:18;;;;;;;15.17;13.67;;;20.70;99.90;;;;;;6225038;23;20426;-75
2021/06/07 12:35:05;;;;;;;14.60;13.40;;;20.80;99.90;;;;;;6170028;23;20511;-75
2021/06/07 12:37:35;;;;;;;14.20;12.97;;;20.80;99.90;;;;;;6226348;23;20480;-76
2021/06/07 12:40:23;;;;;;;13.43;12.03;;;20.80;99.90;;;;;;6226007;23;20455;-76
2021/06/07 12:42:53;;;;;;;14.30;13.00;;;20.80;99.90;;;;;;6189323;23;20440;-75
2021/06/07 12:45:23;;;;;;;13.50;12.40;;;20.80;99.90;;;;;;6189036;23;20444;-75
2021/06/07 12:47:52;;;;;;;14.73;13.43;;;20.70;99.90;;;;;;6189145;23;20414;-75
2021/06/07 12:50:22;;;;;;;16.43;14.93;;;20.70;99.90;;;;;;6189034;23;20444;-75